sensor_id;sensor_type;location;lat;lon;timestamp;pressure;altitude;pressure_sealevel;temperature;humidity
34742;BME280;20968;42.696;23.360;2024-03-06T00:01:31;94977.88;;;8.60;73.45
34742;BME280;20968;42.696;23.360;2024-03-06T00:03:57;94979.38;;;8.47;73.40
34742;BME280;20968;42.696;23.360;2024-03-06T00:06:22;94984.00;;;8.41;73.49
34742;BME280;20968;42.696;23.360;2024-03-06T00:08:49;94987.22;;;8.40;74.48
34742;BME280;20968;42.696;23.360;2024-03-06T00:11:15;94982.59;;;8.46;74.00
34742;BME280;20968;42.696;23.360;2024-03-06T00:13:40;94981.84;;;8.45;74.43
34742;BME280;20968;42.696;23.360;2024-03-06T00:16:06;94973.31;;;8.43;73.95
34742;BME280;20968;42.696;23.360;2024-03-06T00:18:31;94988.38;;;8.48;75.00
34742;BME280;20968;42.696;23.360;2024-03-06T00:20:56;94982.38;;;8.35;75.33
34742;BME280;20968;42.696;23.360;2024-03-06T00:23:22;94978.63;;;8.47;74.02
34742;BME280;20968;42.696;23.360;2024-03-06T00:25:47;94977.75;;;8.41;74.52
34742;BME280;20968;42.696;23.360;2024-03-06T00:28:13;94983.53;;;8.43;74.83
34742;BME280;20968;42.696;23.360;2024-03-06T00:30:39;94979.94;;;8.51;74.77
34742;BME280;20968;42.696;23.360;2024-03-06T00:33:05;94975.88;;;8.47;74.68
34742;BME280;20968;42.696;23.360;2024-03-06T00:35:30;94975.63;;;8.36;75.13
34742;BME280;20968;42.696;23.360;2024-03-06T00:37:55;94983.13;;;8.35;75.07
34742;BME280;20968;42.696;23.360;2024-03-06T00:40:21;94976.59;;;8.33;75.66
34742;BME280;20968;42.696;23.360;2024-03-06T00:42:46;94988.28;;;8.19;75.85
34742;BME280;20968;42.696;23.360;2024-03-06T00:45:11;94986.22;;;8.28;75.14
34742;BME280;20968;42.696;23.360;2024-03-06T00:47:37;94986.91;;;8.38;75.14
34742;BME280;20968;42.696;23.360;2024-03-06T00:50:03;94994.59;;;8.48;75.64
34742;BME280;20968;42.696;23.360;2024-03-06T00:52:31;94985.25;;;8.54;74.92
34742;BME280;20968;42.696;23.360;2024-03-06T00:54:56;94995.13;;;8.61;74.77
34742;BME280;20968;42.696;23.360;2024-03-06T00:57:22;94989.47;;;8.64;74.61
34742;BME280;20968;42.696;23.360;2024-03-06T00:59:47;94990.16;;;8.50;74.25
34742;BME280;20968;42.696;23.360;2024-03-06T01:02:12;94991.09;;;8.48;73.91
34742;BME280;20968;42.696;23.360;2024-03-06T01:04:38;94990.81;;;8.46;74.15
34742;BME280;20968;42.696;23.360;2024-03-06T01:07:03;94991.50;;;8.55;74.38
34742;BME280;20968;42.696;23.360;2024-03-06T01:09:29;94992.56;;;8.57;73.84
34742;BME280;20968;42.696;23.360;2024-03-06T01:11:54;94989.47;;;8.64;74.10
34742;BME280;20968;42.696;23.360;2024-03-06T01:14:20;94999.47;;;8.67;73.67
34742;BME280;20968;42.696;23.360;2024-03-06T01:16:45;94998.25;;;8.68;73.91
34742;BME280;20968;42.696;23.360;2024-03-06T01:19:10;94998.44;;;8.65;73.53
34742;BME280;20968;42.696;23.360;2024-03-06T01:21:38;94996.47;;;8.65;72.85
34742;BME280;20968;42.696;23.360;2024-03-06T01:24:03;94990.50;;;8.67;72.92
34742;BME280;20968;42.696;23.360;2024-03-06T01:26:29;94989.72;;;8.66;72.96
34742;BME280;20968;42.696;23.360;2024-03-06T01:28:54;94989.72;;;8.66;73.65
34742;BME280;20968;42.696;23.360;2024-03-06T01:31:19;95000.44;;;8.64;73.77
34742;BME280;20968;42.696;23.360;2024-03-06T01:33:45;94995.56;;;8.59;73.83
34742;BME280;20968;42.696;23.360;2024-03-06T01:36:10;94991.59;;;8.60;73.46
34742;BME280;20968;42.696;23.360;2024-03-06T01:38:36;94993.88;;;8.62;73.30
34742;BME280;20968;42.696;23.360;2024-03-06T01:41:01;94995.78;;;8.33;72.58
34742;BME280;20968;42.696;23.360;2024-03-06T01:43:27;94990.31;;;8.33;73.25
34742;BME280;20968;42.696;23.360;2024-03-06T01:45:52;94990.88;;;8.37;73.66
34742;BME280;20968;42.696;23.360;2024-03-06T01:48:27;94991.78;;;8.43;73.57
34742;BME280;20968;42.696;23.360;2024-03-06T01:50:55;94994.66;;;8.39;73.73
34742;BME280;20968;42.696;23.360;2024-03-06T01:53:22;94988.66;;;8.03;74.49
34742;BME280;20968;42.696;23.360;2024-03-06T01:55:48;94989.34;;;7.89;73.61
34742;BME280;20968;42.696;23.360;2024-03-06T01:58:14;94994.91;;;7.71;74.19
34742;BME280;20968;42.696;23.360;2024-03-06T02:00:40;94985.69;;;7.51;74.79
34742;BME280;20968;42.696;23.360;2024-03-06T02:03:05;94998.72;;;7.32;75.37
34742;BME280;20968;42.696;23.360;2024-03-06T02:05:31;95002.34;;;7.38;75.28
34742;BME280;20968;42.696;23.360;2024-03-06T02:07:58;95003.84;;;7.39;75.32
34742;BME280;20968;42.696;23.360;2024-03-06T02:10:25;95009.09;;;7.19;75.79
34742;BME280;20968;42.696;23.360;2024-03-06T02:12:51;95012.31;;;7.09;76.24
34742;BME280;20968;42.696;23.360;2024-03-06T02:15:18;95010.66;;;7.02;76.11
34742;BME280;20968;42.696;23.360;2024-03-06T02:17:43;95014.00;;;6.97;76.00
34742;BME280;20968;42.696;23.360;2024-03-06T02:20:10;95010.19;;;7.04;75.59
34742;BME280;20968;42.696;23.360;2024-03-06T02:22:39;95020.06;;;7.01;76.21
34742;BME280;20968;42.696;23.360;2024-03-06T02:25:06;95023.38;;;7.14;76.03
34742;BME280;20968;42.696;23.360;2024-03-06T02:27:31;95019.00;;;7.08;75.54
34742;BME280;20968;42.696;23.360;2024-03-06T02:29:57;95022.50;;;6.99;75.57
34742;BME280;20968;42.696;23.360;2024-03-06T02:32:23;95030.38;;;7.15;75.67
34742;BME280;20968;42.696;23.360;2024-03-06T02:34:49;95025.53;;;7.10;75.21
34742;BME280;20968;42.696;23.360;2024-03-06T02:37:15;95027.06;;;7.02;76.13
34742;BME280;20968;42.696;23.360;2024-03-06T02:39:40;95039.06;;;7.23;75.82
34742;BME280;20968;42.696;23.360;2024-03-06T02:42:06;95035.53;;;7.31;74.86
34742;BME280;20968;42.696;23.360;2024-03-06T02:44:32;95041.31;;;7.33;74.57
34742;BME280;20968;42.696;23.360;2024-03-06T02:46:58;95037.34;;;7.34;74.77
34742;BME280;20968;42.696;23.360;2024-03-06T02:49:23;95031.09;;;7.34;74.24
34742;BME280;20968;42.696;23.360;2024-03-06T02:51:49;95026.22;;;7.38;75.06
34742;BME280;20968;42.696;23.360;2024-03-06T02:54:14;95026.41;;;7.34;74.99
34742;BME280;20968;42.696;23.360;2024-03-06T02:56:40;95026.69;;;7.36;74.75
34742;BME280;20968;42.696;23.360;2024-03-06T02:59:05;95027.75;;;7.39;75.21
34742;BME280;20968;42.696;23.360;2024-03-06T03:01:31;95027.13;;;7.35;74.76
34742;BME280;20968;42.696;23.360;2024-03-06T03:03:57;95025.00;;;7.39;74.91
34742;BME280;20968;42.696;23.360;2024-03-06T03:06:22;95024.84;;;7.42;74.67
34742;BME280;20968;42.696;23.360;2024-03-06T03:08:50;95032.13;;;7.45;74.40
34742;BME280;20968;42.696;23.360;2024-03-06T03:11:16;95025.91;;;7.45;74.63
34742;BME280;20968;42.696;23.360;2024-03-06T03:13:41;95033.22;;;7.48;74.41
34742;BME280;20968;42.696;23.360;2024-03-06T03:16:14;95035.00;;;7.51;74.43
34742;BME280;20968;42.696;23.360;2024-03-06T03:18:40;95032.00;;;7.40;74.17
34742;BME280;20968;42.696;23.360;2024-03-06T03:21:08;95028.03;;;7.41;74.68
34742;BME280;20968;42.696;23.360;2024-03-06T03:23:35;95033.22;;;7.48;73.85
34742;BME280;20968;42.696;23.360;2024-03-06T03:26:01;95044.16;;;7.48;73.99
34742;BME280;20968;42.696;23.360;2024-03-06T03:28:29;95043.88;;;7.46;74.23
34742;BME280;20968;42.696;23.360;2024-03-06T03:30:54;95038.72;;;7.39;74.29
34742;BME280;20968;42.696;23.360;2024-03-06T03:33:20;95038.88;;;7.35;74.01
34742;BME280;20968;42.696;23.360;2024-03-06T03:35:45;95044.47;;;7.41;74.29
34742;BME280;20968;42.696;23.360;2024-03-06T03:38:10;95041.00;;;7.31;74.00
34742;BME280;20968;42.696;23.360;2024-03-06T03:40:36;95046.63;;;7.28;73.66
34742;BME280;20968;42.696;23.360;2024-03-06T03:43:01;95050.16;;;7.28;74.09
34742;BME280;20968;42.696;23.360;2024-03-06T03:45:32;95046.47;;;7.31;74.31
34742;BME280;20968;42.696;23.360;2024-03-06T03:47:57;95051.38;;;7.27;73.99
34742;BME280;20968;42.696;23.360;2024-03-06T03:50:23;95049.69;;;7.30;73.73
34742;BME280;20968;42.696;23.360;2024-03-06T03:52:48;95056.22;;;7.32;74.26
34742;BME280;20968;42.696;23.360;2024-03-06T03:55:14;95055.00;;;7.33;73.97
34742;BME280;20968;42.696;23.360;2024-03-06T03:57:39;95059.69;;;7.33;74.03
34742;BME280;20968;42.696;23.360;2024-03-06T04:00:06;95050.25;;;7.34;73.92
34742;BME280;20968;42.696;23.360;2024-03-06T04:02:36;95053.16;;;7.30;73.98
34742;BME280;20968;42.696;23.360;2024-03-06T04:05:02;95059.56;;;7.36;74.00
34742;BME280;20968;42.696;23.360;2024-03-06T04:07:27;95056.81;;;7.36;74.22
34742;BME280;20968;42.696;23.360;2024-03-06T04:09:53;95048.13;;;7.38;74.14
34742;BME280;20968;42.696;23.360;2024-03-06T04:12:18;95058.94;;;7.41;72.98
34742;BME280;20968;42.696;23.360;2024-03-06T04:14:43;95061.66;;;7.41;73.81
34742;BME280;20968;42.696;23.360;2024-03-06T04:17:09;95067.16;;;7.41;73.94
34742;BME280;20968;42.696;23.360;2024-03-06T04:19:34;95067.16;;;7.41;73.09
34742;BME280;20968;42.696;23.360;2024-03-06T04:21:59;95074.16;;;7.42;72.87
34742;BME280;20968;42.696;23.360;2024-03-06T04:24:25;95071.69;;;7.44;72.79
34742;BME280;20968;42.696;23.360;2024-03-06T04:26:50;95075.66;;;7.43;73.54
34742;BME280;20968;42.696;23.360;2024-03-06T04:29:16;95071.69;;;7.44;73.40
34742;BME280;20968;42.696;23.360;2024-03-06T04:31:41;95079.47;;;7.46;73.05
34742;BME280;20968;42.696;23.360;2024-03-06T04:34:06;95081.44;;;7.45;73.36
34742;BME280;20968;42.696;23.360;2024-03-06T04:36:32;95088.44;;;7.46;73.19
34742;BME280;20968;42.696;23.360;2024-03-06T04:38:57;95083.72;;;7.47;73.20
34742;BME280;20968;42.696;23.360;2024-03-06T04:41:22;95080.53;;;7.48;73.56
34742;BME280;20968;42.696;23.360;2024-03-06T04:43:48;95090.28;;;9.16;87.61
34742;BME280;20968;42.696;23.360;2024-03-06T04:46:15;95094.88;;;10.54;82.68
34742;BME280;20968;42.696;23.360;2024-03-06T04:48:41;95092.53;;;10.87;75.03
34742;BME280;20968;42.696;23.360;2024-03-06T04:51:06;95098.44;;;11.60;72.03
34742;BME280;20968;42.696;23.360;2024-03-06T04:53:32;95090.66;;;12.14;68.19
34742;BME280;20968;42.696;23.360;2024-03-06T04:55:57;95098.66;;;12.43;65.03
34742;BME280;20968;42.696;23.360;2024-03-06T04:58:22;95104.41;;;12.40;63.66
34742;BME280;20968;42.696;23.360;2024-03-06T05:00:48;95105.13;;;11.78;62.73
34742;BME280;20968;42.696;23.360;2024-03-06T05:03:13;95105.16;;;11.13;62.66
34742;BME280;20968;42.696;23.360;2024-03-06T05:05:40;95108.03;;;10.65;62.16
34742;BME280;20968;42.696;23.360;2024-03-06T05:08:05;95105.69;;;10.23;62.50
34742;BME280;20968;42.696;23.360;2024-03-06T05:10:32;95110.81;;;9.87;62.62
34742;BME280;20968;42.696;23.360;2024-03-06T05:12:57;95119.81;;;9.59;62.92
34742;BME280;20968;42.696;23.360;2024-03-06T05:15:23;95113.78;;;9.31;64.07
34742;BME280;20968;42.696;23.360;2024-03-06T05:17:48;95110.81;;;9.06;65.70
34742;BME280;20968;42.696;23.360;2024-03-06T05:20:14;95107.31;;;8.82;66.03
34742;BME280;20968;42.696;23.360;2024-03-06T05:22:39;95104.38;;;8.71;66.74
34742;BME280;20968;42.696;23.360;2024-03-06T05:25:05;95119.06;;;8.59;67.89
34742;BME280;20968;42.696;23.360;2024-03-06T05:27:31;95112.19;;;8.41;68.11
34742;BME280;20968;42.696;23.360;2024-03-06T05:29:57;95114.03;;;8.35;68.74
34742;BME280;20968;42.696;23.360;2024-03-06T05:32:22;95118.22;;;8.12;68.92
34742;BME280;20968;42.696;23.360;2024-03-06T05:34:48;95110.69;;;7.89;70.36
34742;BME280;20968;42.696;23.360;2024-03-06T05:37:13;95125.72;;;8.03;70.98
34742;BME280;20968;42.696;23.360;2024-03-06T05:39:39;95125.38;;;8.10;69.79
34742;BME280;20968;42.696;23.360;2024-03-06T05:42:05;95123.56;;;8.16;70.84
34742;BME280;20968;42.696;23.360;2024-03-06T05:44:33;95122.34;;;8.17;70.01
34742;BME280;20968;42.696;23.360;2024-03-06T05:47:00;95127.00;;;8.25;71.34
34742;BME280;20968;42.696;23.360;2024-03-06T05:49:29;95133.09;;;8.29;70.85
34742;BME280;20968;42.696;23.360;2024-03-06T05:51:55;95130.53;;;8.26;72.13
34742;BME280;20968;42.696;23.360;2024-03-06T05:54:21;95132.34;;;8.29;72.43
34742;BME280;20968;42.696;23.360;2024-03-06T05:56:50;95135.97;;;8.35;72.15
34742;BME280;20968;42.696;23.360;2024-03-06T05:59:19;95135.66;;;8.42;72.83
34742;BME280;20968;42.696;23.360;2024-03-06T06:01:45;95142.34;;;8.41;73.19
34742;BME280;20968;42.696;23.360;2024-03-06T06:04:11;95142.78;;;8.39;73.29
34742;BME280;20968;42.696;23.360;2024-03-06T06:06:37;95146.13;;;8.43;73.19
34742;BME280;20968;42.696;23.360;2024-03-06T06:09:03;95149.06;;;8.40;73.08
34742;BME280;20968;42.696;23.360;2024-03-06T06:11:30;95149.00;;;8.16;72.96
34742;BME280;20968;42.696;23.360;2024-03-06T06:13:56;95145.09;;;7.90;73.82
34742;BME280;20968;42.696;23.360;2024-03-06T06:16:21;95150.59;;;7.90;72.53
34742;BME280;20968;42.696;23.360;2024-03-06T06:18:47;95148.34;;;7.80;73.73
34742;BME280;20968;42.696;23.360;2024-03-06T06:21:12;95153.75;;;7.98;72.62
34742;BME280;20968;42.696;23.360;2024-03-06T06:23:39;95149.59;;;8.11;73.47
34742;BME280;20968;42.696;23.360;2024-03-06T06:26:04;95147.03;;;7.99;72.80
34742;BME280;20968;42.696;23.360;2024-03-06T06:28:30;95155.16;;;7.93;74.00
34742;BME280;20968;42.696;23.360;2024-03-06T06:30:55;95144.63;;;7.92;73.99
34742;BME280;20968;42.696;23.360;2024-03-06T06:33:21;95144.59;;;8.01;74.55
34742;BME280;20968;42.696;23.360;2024-03-06T06:35:47;95139.84;;;8.10;73.72
34742;BME280;20968;42.696;23.360;2024-03-06T06:38:12;95153.03;;;8.39;73.34
34742;BME280;20968;42.696;23.360;2024-03-06T06:40:37;95145.16;;;8.55;73.22
34742;BME280;20968;42.696;23.360;2024-03-06T06:43:03;95144.31;;;8.40;73.21
34742;BME280;20968;42.696;23.360;2024-03-06T06:45:28;95146.44;;;8.45;72.97
34742;BME280;20968;42.696;23.360;2024-03-06T06:47:53;95144.94;;;8.67;73.31
34742;BME280;20968;42.696;23.360;2024-03-06T06:50:19;95149.06;;;8.40;73.47
34742;BME280;20968;42.696;23.360;2024-03-06T06:52:48;95148.72;;;8.47;73.54
34742;BME280;20968;42.696;23.360;2024-03-06T06:55:13;95154.94;;;8.79;72.94
34742;BME280;20968;42.696;23.360;2024-03-06T06:57:39;95157.75;;;8.70;73.87
34742;BME280;20968;42.696;23.360;2024-03-06T07:00:05;95159.78;;;8.84;72.72
34742;BME280;20968;42.696;23.360;2024-03-06T07:02:42;95156.38;;;8.66;73.92
34742;BME280;20968;42.696;23.360;2024-03-06T07:05:08;95159.69;;;9.02;73.16
34742;BME280;20968;42.696;23.360;2024-03-06T07:07:35;95154.63;;;9.01;72.57
34742;BME280;20968;42.696;23.360;2024-03-06T07:10:01;95162.06;;;9.09;72.84
34742;BME280;20968;42.696;23.360;2024-03-06T07:12:27;95157.94;;;9.28;72.08
34742;BME280;20968;42.696;23.360;2024-03-06T07:14:53;95157.22;;;9.42;71.25
34742;BME280;20968;42.696;23.360;2024-03-06T07:17:18;95161.84;;;9.36;70.92
34742;BME280;20968;42.696;23.360;2024-03-06T07:19:44;95158.47;;;9.41;70.07
34742;BME280;20968;42.696;23.360;2024-03-06T07:22:09;95152.41;;;9.51;70.15
34742;BME280;20968;42.696;23.360;2024-03-06T07:24:34;95154.00;;;9.58;70.06
34742;BME280;20968;42.696;23.360;2024-03-06T07:27:00;95160.41;;;9.78;69.99
34742;BME280;20968;42.696;23.360;2024-03-06T07:29:28;95154.06;;;9.87;69.13
34742;BME280;20968;42.696;23.360;2024-03-06T07:31:54;95161.44;;;9.95;69.21
34742;BME280;20968;42.696;23.360;2024-03-06T07:34:20;95158.94;;;10.06;68.63
34742;BME280;20968;42.696;23.360;2024-03-06T07:36:48;95165.06;;;9.87;68.60
34742;BME280;20968;42.696;23.360;2024-03-06T07:39:16;95158.06;;;10.00;68.20
34742;BME280;20968;42.696;23.360;2024-03-06T07:41:42;95154.19;;;10.21;68.25
34742;BME280;20968;42.696;23.360;2024-03-06T07:44:08;95151.78;;;10.28;67.82
34742;BME280;20968;42.696;23.360;2024-03-06T07:46:34;95151.03;;;9.99;68.42
34742;BME280;20968;42.696;23.360;2024-03-06T07:49:00;95157.00;;;10.26;68.04
34742;BME280;20968;42.696;23.360;2024-03-06T07:51:25;95157.28;;;10.43;67.68
34742;BME280;20968;42.696;23.360;2024-03-06T07:53:50;95151.78;;;10.14;68.36
34742;BME280;20968;42.696;23.360;2024-03-06T07:56:16;95158.13;;;10.34;68.14
34742;BME280;20968;42.696;23.360;2024-03-06T07:58:42;95155.47;;;10.25;67.05
34742;BME280;20968;42.696;23.360;2024-03-06T08:01:07;95154.03;;;10.30;68.63
34742;BME280;20968;42.696;23.360;2024-03-06T08:03:33;95150.19;;;10.56;67.44
34742;BME280;20968;42.696;23.360;2024-03-06T08:05:59;95152.72;;;10.74;67.04
34742;BME280;20968;42.696;23.360;2024-03-06T08:08:25;95148.81;;;10.81;67.33
34742;BME280;20968;42.696;23.360;2024-03-06T08:10:50;95157.00;;;10.75;67.98
34742;BME280;20968;42.696;23.360;2024-03-06T08:13:16;95163.56;;;10.97;67.01
34742;BME280;20968;42.696;23.360;2024-03-06T08:15:44;95156.06;;;11.18;66.47
34742;BME280;20968;42.696;23.360;2024-03-06T08:18:09;95153.47;;;11.29;65.54
34742;BME280;20968;42.696;23.360;2024-03-06T08:20:35;95155.44;;;11.48;65.74
34742;BME280;20968;42.696;23.360;2024-03-06T08:23:01;95158.41;;;11.45;65.62
34742;BME280;20968;42.696;23.360;2024-03-06T08:25:26;95153.56;;;11.40;64.86
34742;BME280;20968;42.696;23.360;2024-03-06T08:27:52;95153.88;;;11.62;64.60
34742;BME280;20968;42.696;23.360;2024-03-06T08:30:17;95148.81;;;11.60;64.37
34742;BME280;20968;42.696;23.360;2024-03-06T08:32:42;95142.78;;;11.81;64.49
34742;BME280;20968;42.696;23.360;2024-03-06T08:35:11;95152.22;;;11.95;62.90
34742;BME280;20968;42.696;23.360;2024-03-06T08:37:40;95149.69;;;11.97;63.15
34742;BME280;20968;42.696;23.360;2024-03-06T08:40:08;95153.88;;;12.12;63.09
34742;BME280;20968;42.696;23.360;2024-03-06T08:42:49;95157.13;;;12.41;61.26
34742;BME280;20968;42.696;23.360;2024-03-06T08:45:16;95163.41;;;12.42;61.34
34742;BME280;20968;42.696;23.360;2024-03-06T08:47:43;95160.47;;;12.51;61.24
34742;BME280;20968;42.696;23.360;2024-03-06T08:50:10;95159.19;;;12.46;61.34
34742;BME280;20968;42.696;23.360;2024-03-06T08:52:36;95164.13;;;12.73;60.80
34742;BME280;20968;42.696;23.360;2024-03-06T08:55:02;95155.84;;;12.68;59.08
34742;BME280;20968;42.696;23.360;2024-03-06T08:57:31;95150.00;;;12.60;59.12
34742;BME280;20968;42.696;23.360;2024-03-06T08:59:59;95152.00;;;12.60;59.64
34742;BME280;20968;42.696;23.360;2024-03-06T09:02:25;95154.56;;;12.69;61.01
34742;BME280;20968;42.696;23.360;2024-03-06T09:04:51;95152.41;;;12.84;60.30
34742;BME280;20968;42.696;23.360;2024-03-06T09:07:17;95155.13;;;13.09;59.77
34742;BME280;20968;42.696;23.360;2024-03-06T09:09:43;95155.47;;;13.27;58.13
34742;BME280;20968;42.696;23.360;2024-03-06T09:12:10;95155.19;;;13.25;59.07
34742;BME280;20968;42.696;23.360;2024-03-06T09:14:36;95161.56;;;13.42;59.35
34742;BME280;20968;42.696;23.360;2024-03-06T09:17:02;95157.13;;;13.67;57.89
34742;BME280;20968;42.696;23.360;2024-03-06T09:19:28;95155.22;;;13.31;57.77
34742;BME280;20968;42.696;23.360;2024-03-06T09:21:54;95151.22;;;13.32;57.65
34742;BME280;20968;42.696;23.360;2024-03-06T09:24:23;95149.00;;;13.52;57.85
34742;BME280;20968;42.696;23.360;2024-03-06T09:26:49;95146.31;;;13.69;56.81
34742;BME280;20968;42.696;23.360;2024-03-06T09:29:15;95153.38;;;13.81;55.33
34742;BME280;20968;42.696;23.360;2024-03-06T09:31:41;95145.34;;;13.88;55.04
34742;BME280;20968;42.696;23.360;2024-03-06T09:34:07;95140.28;;;13.87;54.93
34742;BME280;20968;42.696;23.360;2024-03-06T09:36:32;95140.81;;;13.91;55.35
34742;BME280;20968;42.696;23.360;2024-03-06T09:38:58;95142.34;;;14.08;54.95
34742;BME280;20968;42.696;23.360;2024-03-06T09:41:24;95136.63;;;14.39;54.32
34742;BME280;20968;42.696;23.360;2024-03-06T09:43:49;95135.59;;;14.47;53.31
34742;BME280;20968;42.696;23.360;2024-03-06T09:46:15;95136.88;;;14.57;52.71
34742;BME280;20968;42.696;23.360;2024-03-06T09:48:46;95133.31;;;14.73;52.05
34742;BME280;20968;42.696;23.360;2024-03-06T09:51:11;95127.00;;;14.94;52.94
34742;BME280;20968;42.696;23.360;2024-03-06T09:53:38;95130.72;;;15.19;51.57
34742;BME280;20968;42.696;23.360;2024-03-06T09:56:04;95125.06;;;15.52;49.84
34742;BME280;20968;42.696;23.360;2024-03-06T09:58:31;95120.66;;;15.78;48.90
34742;BME280;20968;42.696;23.360;2024-03-06T10:00:58;95127.03;;;16.08;49.00
34742;BME280;20968;42.696;23.360;2024-03-06T10:03:25;95122.13;;;16.25;47.80
34742;BME280;20968;42.696;23.360;2024-03-06T10:05:50;95125.53;;;16.41;46.70
34742;BME280;20968;42.696;23.360;2024-03-06T10:08:16;95113.50;;;16.28;46.69
34742;BME280;20968;42.696;23.360;2024-03-06T10:10:42;95111.88;;;16.09;47.07
34742;BME280;20968;42.696;23.360;2024-03-06T10:13:08;95113.47;;;16.34;46.38
34742;BME280;20968;42.696;23.360;2024-03-06T10:15:33;95107.88;;;16.39;45.81
34742;BME280;20968;42.696;23.360;2024-03-06T10:18:14;95104.94;;;16.55;45.24
34742;BME280;20968;42.696;23.360;2024-03-06T10:20:41;95109.41;;;16.69;44.39
34742;BME280;20968;42.696;23.360;2024-03-06T10:23:09;95099.75;;;16.46;44.99
34742;BME280;20968;42.696;23.360;2024-03-06T10:25:34;95106.91;;;16.66;44.32
34742;BME280;20968;42.696;23.360;2024-03-06T10:28:10;95099.25;;;16.72;44.17
34742;BME280;20968;42.696;23.360;2024-03-06T10:30:40;95093.88;;;16.79;43.76
34742;BME280;20968;42.696;23.360;2024-03-06T10:33:09;95085.00;;;16.57;43.80
34742;BME280;20968;42.696;23.360;2024-03-06T10:35:35;95089.97;;;16.64;43.10
34742;BME280;20968;42.696;23.360;2024-03-06T10:38:05;95086.06;;;16.78;44.00
34742;BME280;20968;42.696;23.360;2024-03-06T10:40:33;95083.28;;;17.02;43.58
34742;BME280;20968;42.696;23.360;2024-03-06T10:42:59;95083.81;;;17.00;42.93
34742;BME280;20968;42.696;23.360;2024-03-06T10:47:59;95075.41;;;17.24;43.47
34742;BME280;20968;42.696;23.360;2024-03-06T10:50:26;95068.41;;;17.41;42.24
34742;BME280;20968;42.696;23.360;2024-03-06T10:52:53;95056.75;;;17.43;41.80
34742;BME280;20968;42.696;23.360;2024-03-06T10:55:21;95061.66;;;17.55;41.63
34742;BME280;20968;42.696;23.360;2024-03-06T10:57:47;95056.22;;;17.44;41.54
34742;BME280;20968;42.696;23.360;2024-03-06T11:00:14;95053.97;;;17.61;41.72
34742;BME280;20968;42.696;23.360;2024-03-06T11:02:46;95050.38;;;17.24;42.34
34742;BME280;20968;42.696;23.360;2024-03-06T11:05:14;95042.91;;;17.37;42.38
34742;BME280;20968;42.696;23.360;2024-03-06T11:07:39;95034.31;;;16.93;43.45
34742;BME280;20968;42.696;23.360;2024-03-06T11:10:05;95034.84;;;17.52;41.54
34742;BME280;20968;42.696;23.360;2024-03-06T11:12:39;95026.41;;;17.76;41.14
34742;BME280;20968;42.696;23.360;2024-03-06T11:15:14;95034.41;;;17.30;40.60
34742;BME280;20968;42.696;23.360;2024-03-06T11:17:41;95021.28;;;17.62;40.49
34742;BME280;20968;42.696;23.360;2024-03-06T11:20:16;95020.19;;;18.01;39.65
34742;BME280;20968;42.696;23.360;2024-03-06T11:28:23;95016.13;;;17.53;40.16
34742;BME280;20968;42.696;23.360;2024-03-06T11:33:14;95011.13;;;17.83;39.59
34742;BME280;20968;42.696;23.360;2024-03-06T11:38:37;95002.13;;;18.08;39.21
34742;BME280;20968;42.696;23.360;2024-03-06T11:41:04;94998.00;;;18.27;38.08
34742;BME280;20968;42.696;23.360;2024-03-06T11:43:32;94993.94;;;18.28;38.33
34742;BME280;20968;42.696;23.360;2024-03-06T11:46:08;94993.88;;;18.15;38.54
34742;BME280;20968;42.696;23.360;2024-03-06T11:48:34;94989.88;;;18.29;38.76
34742;BME280;20968;42.696;23.360;2024-03-06T11:51:01;94994.41;;;17.83;38.81
34742;BME280;20968;42.696;23.360;2024-03-06T11:53:29;94988.28;;;18.15;38.84
34742;BME280;20968;42.696;23.360;2024-03-06T11:55:55;94990.53;;;18.48;38.02
34742;BME280;20968;42.696;23.360;2024-03-06T11:58:22;94986.94;;;18.66;38.23
34742;BME280;20968;42.696;23.360;2024-03-06T12:00:47;94985.63;;;18.54;36.70
34742;BME280;20968;42.696;23.360;2024-03-06T12:03:13;94980.09;;;18.23;38.74
34742;BME280;20968;42.696;23.360;2024-03-06T12:05:38;94981.75;;;17.82;38.73
34742;BME280;20968;42.696;23.360;2024-03-06T12:08:06;94975.00;;;17.22;39.72
34742;BME280;20968;42.696;23.360;2024-03-06T12:10:36;94981.59;;;17.01;39.74
34742;BME280;20968;42.696;23.360;2024-03-06T12:13:02;94973.19;;;17.06;39.74
34742;BME280;20968;42.696;23.360;2024-03-06T12:15:28;94979.31;;;17.41;38.87
34742;BME280;20968;42.696;23.360;2024-03-06T12:17:54;94974.53;;;17.92;39.34
34742;BME280;20968;42.696;23.360;2024-03-06T12:20:20;94972.34;;;18.16;39.05
34742;BME280;20968;42.696;23.360;2024-03-06T12:22:49;94971.78;;;18.49;38.15
34742;BME280;20968;42.696;23.360;2024-03-06T12:25:21;94965.47;;;18.87;36.69
34742;BME280;20968;42.696;23.360;2024-03-06T12:27:48;94965.88;;;19.04;35.88
34742;BME280;20968;42.696;23.360;2024-03-06T12:30:17;94957.28;;;18.76;36.25
34742;BME280;20968;42.696;23.360;2024-03-06T12:33:03;94954.72;;;18.52;38.24
34742;BME280;20968;42.696;23.360;2024-03-06T12:35:30;94962.81;;;17.62;43.06
34742;BME280;20968;42.696;23.360;2024-03-06T12:37:56;94958.16;;;16.72;45.09
34742;BME280;20968;42.696;23.360;2024-03-06T12:40:22;94956.59;;;16.05;48.15
34742;BME280;20968;42.696;23.360;2024-03-06T12:42:47;94959.03;;;15.85;49.18
34742;BME280;20968;42.696;23.360;2024-03-06T12:45:13;94958.41;;;15.68;49.61
34742;BME280;20968;42.696;23.360;2024-03-06T12:47:44;94954.63;;;15.31;50.89
34742;BME280;20968;42.696;23.360;2024-03-06T12:50:16;94958.75;;;15.08;50.50
34742;BME280;20968;42.696;23.360;2024-03-06T12:52:41;94955.28;;;15.02;50.28
34742;BME280;20968;42.696;23.360;2024-03-06T12:55:10;94951.59;;;14.83;51.31
34742;BME280;20968;42.696;23.360;2024-03-06T12:57:36;94949.03;;;14.85;51.19
34742;BME280;20968;42.696;23.360;2024-03-06T13:00:01;94954.56;;;14.90;51.39
34742;BME280;20968;42.696;23.360;2024-03-06T13:02:27;94954.09;;;14.86;51.55
34742;BME280;20968;42.696;23.360;2024-03-06T13:04:52;94947.16;;;14.64;52.17